Silver Lake, KS (66539)

7:42 PM CDT on May 05, 2015 (GMT -0500)
62nd St | | Change Station
CLOSE
Current Station
Personal Weather Station
Location: Rossville, KS
Elevation: 1033 ft
Nearby Weather Stations

Elev 1033 ft 39.16 °N, 95.94 °W | Updated 7 seconds ago

Overcast
Overcast
64.5 °F
Feels Like 64.5 °F
N
6.6
Wind Variable Wind from SE
Gusts 18.0 mph

Today
High -- | Low -- °F
--% Chance of Precip.
Yesterday
High -- | Low -- °F
Precip. -- in
6:20 AM 8:20 PM
Waning Gibbous, 96% visible
Pressure 29.99 in
Visibility 3.0 miles
Clouds Scattered Clouds 7500 ft
Overcast 10000 ft
Dew Point 62 °F
Humidity 93%
Rainfall 0.09 in
Snow Depth Not available.
UV 0 out of 12
Pollen 7.90 out of 12
Air Quality Not available.
Flu Activity Sporadic
SPECI KTOP 060014Z AUTO 16011KT 3SM RA BR SCT075 OVC100 18/16 A2999 RMK AO2 LTG DSNT E AND SE P0010 T01830161

More Conditions Fewer Conditions

Pressure 29.99 in
Visibility 3.0 miles
Clouds Scattered Clouds 7500 ft
Overcast 10000 ft
Dew Point 62 °F
Humidity 93%
Rainfall 0.09 in
Snow Depth Not available.
UV 0 out of 12
Pollen 7.90 out of 12
Air Quality Not available.
Flu Activity Sporadic
SPECI KTOP 060014Z AUTO 16011KT 3SM RA BR SCT075 OVC100 18/16 A2999 RMK AO2 LTG DSNT E AND SE P0010 T01830161

More Conditions Fewer Conditions

10-Day Weather Forecast

Almanac

Astronomy

May. 05, 2015 Rise Set
Actual Time
Civil Twilight
Nautical Twilight
Astronomical Twilight
Moon
Length of Visible Light
Length of Day
Tomorrow will be .
, % of the Moon is Illuminated

Today's Extremes

State Highs State Lows

Community

WunderPhotos

Upload Photos

1,819,025 photos uploaded!

WunderBlogs® & News

Nearby

Air Quality

  Air Quality AQ Index Pollutant
Not available.

Snow Depth

Station Depth Elevation

Earthquake Activity

City Distance Mag. Time & Date
Minimum magnitude displayed is 2.5.

Coastal Water Temperatures

Place Temperature

Stations

Nearby Weather Stations

Station Location Temp. Windchill Dew Point Humidity Wind Precip. Elev Updated Type